Aviation Digital Data Service (ADDS)

Output produced by METARs form (0101 UTC 31 July 2015)
found at http://aviationweather.gov/adds/metars/
 
KPIT 302321Z 3100/0106 VRB05KT P6SM SKC 
     FM311600 27008KT P6SM SCT040